Time;durP1;ratioP1;P1;durP2;ratioP2;P2;SDS_P1;SDS_P2;PMS_P1;PMS_P2;Temp;Humidity;BMP_temperature;BMP_pressure;BME280_temperature;BME280_humidity;BME280_pressure;Samples;Min_cycle;Max_cycle;Signal;HPM_P1;HPM_P2
2021/04/20 00:00:41;;;;;;;24.35;13.18;;;;;;;;;;5076880;28;20110;-79
2021/04/20 00:03:06;;;;;;;29.48;15.57;;;;;;;;;;5069106;28;20031;-79
2021/04/20 00:05:33;;;;;;;32.88;16.15;;;;;;;;;;5091277;28;20078;-79
2021/04/20 00:07:58;;;;;;;25.23;13.90;;;;;;;;;;5088907;28;20012;-78
2021/04/20 00:10:23;;;;;;;29.02;14.48;;;;;;;;;;5065352;28;20111;-80
2021/04/20 00:12:49;;;;;;;27.83;15.60;;;;;;;;;;5081937;28;20020;-80
2021/04/20 00:15:17;;;;;;;25.83;14.75;;;;;;;;;;5089021;28;20035;-78
2021/04/20 00:17:42;;;;;;;30.42;16.25;;;;;;;;;;5082916;28;20088;-79
2021/04/20 00:20:09;;;;;;;28.25;15.45;;;;;;;;;;5086168;28;20373;-80
2021/04/20 00:22:34;;;;;;;32.78;17.00;;;;;;;;;;5086347;28;20016;-78
2021/04/20 00:25:00;;;;;;;30.77;16.10;;;;;;;;;;5069687;28;20240;-79
2021/04/20 00:27:26;;;;;;;33.60;17.08;;;;;;;;;;5082705;28;20382;-79
2021/04/20 00:29:51;;;;;;;33.95;17.13;;;;;;;;;;5079108;28;20065;-80
2021/04/20 00:32:16;;;;;;;32.33;16.35;;;;;;;;;;5089091;28;20474;-80
2021/04/20 00:34:41;;;;;;;28.67;16.35;;;;;;;;;;5074025;28;20053;-80
2021/04/20 00:37:06;;;;;;;32.47;17.83;;;;;;;;;;5086967;28;20020;-78
2021/04/20 00:39:32;;;;;;;31.08;16.30;;;;;;;;;;5081827;28;20046;-81
2021/04/20 00:42:01;;;;;;;34.70;17.15;;;;;;;;;;5078712;28;20162;-81
2021/04/20 00:44:26;;;;;;;37.80;18.85;;;;;;;;;;5083257;28;20024;-79
2021/04/20 00:46:51;;;;;;;36.25;19.45;;;;;;;;;;5057381;28;20023;-79
2021/04/20 00:49:16;;;;;;;35.30;17.23;;;;;;;;;;5063843;28;20127;-78
2021/04/20 00:51:41;;;;;;;34.40;17.77;;;;;;;;;;5076818;28;20105;-79
2021/04/20 00:54:07;;;;;;;35.97;18.77;;;;;;;;;;5082151;28;20024;-78
2021/04/20 00:56:32;;;;;;;34.78;18.88;;;;;;;;;;5087530;28;20035;-78
2021/04/20 00:58:58;;;;;;;32.42;17.58;;;;;;;;;;5088803;28;20020;-79
2021/04/20 01:01:23;;;;;;;34.50;17.55;;;;;;;;;;5054278;28;20473;-80
2021/04/20 01:03:48;;;;;;;36.28;20.45;;;;;;;;;;5080923;28;20047;-79
2021/04/20 01:06:15;;;;;;;37.92;19.35;;;;;;;;;;5085283;28;20027;-79
2021/04/20 01:08:40;;;;;;;36.08;19.55;;;;;;;;;;5089114;28;20016;-79
2021/04/20 01:11:06;;;;;;;38.83;19.13;;;;;;;;;;5077189;28;20035;-79
2021/04/20 01:13:32;;;;;;;37.80;18.40;;;;;;;;;;5078215;28;20043;-79
2021/04/20 01:15:57;;;;;;;41.28;19.73;;;;;;;;;;5062526;28;20040;-79
2021/04/20 01:18:27;;;;;;;36.92;19.02;;;;;;;;;;5081020;28;20042;-79
2021/04/20 01:20:57;;;;;;;37.63;19.60;;;;;;;;;;5082378;28;20387;-80
2021/04/20 01:23:42;;;;;;;35.70;17.33;;;;;;;;;;5082978;28;20052;-80
2021/04/20 01:26:08;;;;;;;30.98;16.63;;;;;;;;;;5070100;28;20027;-79
2021/04/20 01:28:33;;;;;;;35.33;18.20;;;;;;;;;;5078471;28;20466;-78
2021/04/20 01:30:58;;;;;;;38.00;18.95;;;;;;;;;;5074080;28;20021;-78
2021/04/20 01:33:24;;;;;;;38.05;20.55;;;;;;;;;;5081801;28;20051;-79
2021/04/20 01:35:49;;;;;;;35.05;19.50;;;;;;;;;;5087284;28;20557;-80
2021/04/20 01:38:14;;;;;;;39.50;19.90;;;;;;;;;;5079020;28;20032;-79
2021/04/20 01:40:40;;;;;;;38.95;19.58;;;;;;;;;;5081454;28;20202;-80
2021/04/20 01:43:05;;;;;;;38.17;20.40;;;;;;;;;;5090135;28;20031;-79
2021/04/20 01:45:31;;;;;;;36.85;20.25;;;;;;;;;;5078638;28;20068;-79
2021/04/20 01:47:58;;;;;;;38.67;20.42;;;;;;;;;;5087537;28;20023;-78
2021/04/20 01:50:24;;;;;;;36.42;20.75;;;;;;;;;;5080557;28;20092;-79
2021/04/20 01:52:50;;;;;;;38.42;19.70;;;;;;;;;;5079149;28;20467;-80
2021/04/20 01:55:15;;;;;;;35.55;19.67;;;;;;;;;;5084197;28;20026;-79
2021/04/20 01:57:42;;;;;;;37.47;19.35;;;;;;;;;;5076820;28;20030;-79
2021/04/20 02:00:09;;;;;;;39.22;19.27;;;;;;;;;;5089923;28;20498;-79
2021/04/20 02:02:34;;;;;;;38.90;19.20;;;;;;;;;;5078029;28;20108;-80
2021/04/20 02:04:59;;;;;;;39.53;19.33;;;;;;;;;;5090944;28;20114;-80
2021/04/20 02:07:25;;;;;;;37.78;18.40;;;;;;;;;;5083812;28;20032;-79
2021/04/20 02:09:50;;;;;;;38.67;19.73;;;;;;;;;;5084834;28;20028;-79
2021/04/20 02:12:15;;;;;;;36.55;20.67;;;;;;;;;;5090904;28;20024;-80
2021/04/20 02:14:40;;;;;;;36.67;19.55;;;;;;;;;;5071076;28;20039;-80
2021/04/20 02:17:06;;;;;;;37.65;19.35;;;;;;;;;;5086298;28;20034;-79
2021/04/20 02:19:31;;;;;;;36.95;19.48;;;;;;;;;;5083365;28;20024;-79
2021/04/20 02:21:57;;;;;;;41.50;19.65;;;;;;;;;;5076621;28;20136;-79
2021/04/20 02:24:22;;;;;;;39.78;20.08;;;;;;;;;;5079677;28;20078;-79
2021/04/20 02:26:47;;;;;;;36.78;19.63;;;;;;;;;;5082449;28;20412;-79
2021/04/20 02:29:14;;;;;;;34.13;19.60;;;;;;;;;;5090011;28;20062;-79
2021/04/20 02:31:40;;;;;;;39.88;20.92;;;;;;;;;;5073915;28;20024;-79
2021/04/20 02:34:06;;;;;;;38.03;21.13;;;;;;;;;;5074365;28;20428;-78
2021/04/20 02:36:34;;;;;;;38.80;20.98;;;;;;;;;;5055871;28;20070;-80
2021/04/20 02:38:59;;;;;;;42.88;21.63;;;;;;;;;;5083999;28;20020;-79
2021/04/20 02:41:25;;;;;;;40.80;21.23;;;;;;;;;;5077192;28;20028;-79
2021/04/20 02:43:50;;;;;;;37.60;20.67;;;;;;;;;;5079643;28;20511;-79
2021/04/20 02:46:16;;;;;;;45.03;23.40;;;;;;;;;;5075285;28;20013;-78
2021/04/20 02:48:43;;;;;;;40.72;20.70;;;;;;;;;;5081033;28;20027;-79
2021/04/20 02:51:09;;;;;;;39.92;20.15;;;;;;;;;;5081363;28;20021;-79
2021/04/20 02:53:34;;;;;;;38.22;20.52;;;;;;;;;;5072992;28;20026;-79
2021/04/20 02:56:00;;;;;;;38.65;19.20;;;;;;;;;;5083176;28;20025;-80
2021/04/20 02:58:26;;;;;;;37.72;19.95;;;;;;;;;;5099659;28;20039;-79
2021/04/20 03:00:55;;;;;;;40.25;20.67;;;;;;;;;;5098390;28;20039;-78
2021/04/20 03:03:21;;;;;;;48.03;22.97;;;;;;;;;;5088601;28;20025;-79
2021/04/20 03:05:46;;;;;;;46.70;24.33;;;;;;;;;;5092319;28;20103;-80
2021/04/20 03:08:12;;;;;;;43.45;21.42;;;;;;;;;;5081212;28;20032;-81
2021/04/20 03:10:38;;;;;;;43.28;23.25;;;;;;;;;;5074983;28;20017;-80
2021/04/20 03:13:04;;;;;;;41.15;22.48;;;;;;;;;;5077031;28;20032;-79
2021/04/20 03:15:29;;;;;;;44.50;22.17;;;;;;;;;;5058882;28;20036;-78
2021/04/20 03:17:55;;;;;;;47.22;23.15;;;;;;;;;;5080483;28;20038;-78
2021/04/20 03:20:20;;;;;;;45.20;21.52;;;;;;;;;;5083830;28;20031;-77
2021/04/20 03:22:46;;;;;;;45.47;23.48;;;;;;;;;;5079785;28;20020;-78
2021/04/20 03:25:19;;;;;;;43.70;22.10;;;;;;;;;;5089445;28;20024;-78
2021/04/20 03:27:45;;;;;;;44.03;22.35;;;;;;;;;;5082476;28;20012;-79
2021/04/20 03:30:11;;;;;;;45.75;21.52;;;;;;;;;;5086427;28;20043;-79
2021/04/20 03:32:39;;;;;;;47.50;24.00;;;;;;;;;;5082353;28;20075;-78
2021/04/20 03:35:07;;;;;;;47.28;24.27;;;;;;;;;;5075634;28;20056;-78
2021/04/20 03:37:37;;;;;;;48.35;23.42;;;;;;;;;;5085295;28;20079;-79
2021/04/20 03:40:04;;;;;;;44.97;23.83;;;;;;;;;;5082151;28;20467;-79
2021/04/20 03:42:31;;;;;;;49.60;25.45;;;;;;;;;;5073275;28;20024;-78
2021/04/20 03:44:57;;;;;;;43.08;24.95;;;;;;;;;;5081864;28;20380;-79
2021/04/20 03:47:35;;;;;;;49.22;26.30;;;;;;;;;;5080319;28;20020;-78
2021/04/20 03:50:01;;;;;;;49.40;24.20;;;;;;;;;;5071191;28;20128;-79
2021/04/20 03:52:28;;;;;;;43.47;21.90;;;;;;;;;;5072799;28;20028;-78
2021/04/20 03:54:55;;;;;;;47.38;24.63;;;;;;;;;;5077172;28;20131;-80
2021/04/20 03:57:21;;;;;;;47.15;22.98;;;;;;;;;;5057747;28;20024;-79
2021/04/20 03:59:47;;;;;;;45.83;24.40;;;;;;;;;;5083230;28;20036;-79
2021/04/20 04:02:12;;;;;;;50.60;25.42;;;;;;;;;;5072360;28;20082;-79
2021/04/20 04:04:39;;;;;;;49.65;24.42;;;;;;;;;;5080923;28;20024;-79
2021/04/20 04:07:05;;;;;;;45.78;21.67;;;;;;;;;;5071883;28;20032;-79
2021/04/20 04:09:30;;;;;;;41.05;21.80;;;;;;;;;;5076678;28;20055;-80
2021/04/20 04:11:56;;;;;;;50.33;25.08;;;;;;;;;;5081197;28;20017;-77
2021/04/20 04:14:22;;;;;;;50.28;25.10;;;;;;;;;;5076667;28;20491;-79
2021/04/20 04:16:48;;;;;;;46.92;24.52;;;;;;;;;;5078806;28;20032;-80
2021/04/20 04:19:14;;;;;;;54.90;26.90;;;;;;;;;;5085243;28;20039;-78
2021/04/20 04:21:43;;;;;;;51.30;26.23;;;;;;;;;;5060976;28;20032;-78
2021/04/20 04:24:10;;;;;;;49.50;25.17;;;;;;;;;;5067258;28;20468;-79
2021/04/20 04:26:36;;;;;;;47.72;23.52;;;;;;;;;;5086441;28;20020;-79
2021/04/20 04:29:02;;;;;;;48.92;24.55;;;;;;;;;;5082308;28;20032;-78
2021/04/20 04:31:28;;;;;;;50.00;26.77;;;;;;;;;;5083501;28;20174;-79
2021/04/20 04:33:54;;;;;;;47.53;24.25;;;;;;;;;;5078297;28;20123;-78
2021/04/20 04:36:20;;;;;;;48.47;24.02;;;;;;;;;;5076925;28;20203;-78
2021/04/20 04:38:45;;;;;;;49.97;25.17;;;;;;;;;;5076308;28;20058;-78
2021/04/20 04:41:11;;;;;;;46.83;24.17;;;;;;;;;;5084533;28;20039;-78
2021/04/20 04:43:36;;;;;;;48.70;25.63;;;;;;;;;;5080578;28;20027;-78
2021/04/20 04:46:03;;;;;;;47.15;24.70;;;;;;;;;;5076830;28;20039;-79
2021/04/20 04:48:29;;;;;;;49.25;25.00;;;;;;;;;;5076533;28;20024;-79
2021/04/20 04:50:55;;;;;;;55.10;26.70;;;;;;;;;;5088981;28;20428;-78
2021/04/20 04:53:21;;;;;;;47.10;23.88;;;;;;;;;;5071952;28;20060;-78
2021/04/20 04:55:46;;;;;;;42.90;20.63;;;;;;;;;;5082959;28;20036;-78
2021/04/20 04:58:12;;;;;;;52.83;25.45;;;;;;;;;;5076026;28;20493;-78
2021/04/20 05:00:37;;;;;;;48.75;23.70;;;;;;;;;;5084007;28;20024;-77
2021/04/20 05:03:05;;;;;;;50.63;25.55;;;;;;;;;;5082985;28;20181;-78
2021/04/20 05:05:31;;;;;;;50.35;24.25;;;;;;;;;;5079588;28;20032;-78
2021/04/20 05:07:59;;;;;;;51.40;25.67;;;;;;;;;;5083872;28;20032;-78
2021/04/20 05:10:24;;;;;;;52.20;25.05;;;;;;;;;;5081955;28;20076;-79
2021/04/20 05:12:50;;;;;;;47.72;23.92;;;;;;;;;;5080752;28;20023;-79
2021/04/20 05:15:16;;;;;;;45.00;22.10;;;;;;;;;;5086911;28;20113;-79
2021/04/20 05:17:41;;;;;;;47.38;24.95;;;;;;;;;;5082694;28;20475;-77
2021/04/20 05:20:07;;;;;;;50.78;23.33;;;;;;;;;;5085830;28;20040;-78
2021/04/20 05:22:34;;;;;;;51.97;25.33;;;;;;;;;;5082922;28;20046;-84
2021/04/20 05:25:00;;;;;;;51.88;25.92;;;;;;;;;;5081020;28;20016;-92
2021/04/20 05:27:26;;;;;;;50.67;25.92;;;;;;;;;;5109646;28;20025;-85
2021/04/20 05:29:51;;;;;;;44.20;22.88;;;;;;;;;;5117365;28;20020;-86
2021/04/20 05:32:16;;;;;;;48.47;23.08;;;;;;;;;;5067640;28;20023;-86
2021/04/20 05:34:41;;;;;;;46.05;22.85;;;;;;;;;;5082447;28;20037;-82
2021/04/20 05:37:06;;;;;;;46.55;23.30;;;;;;;;;;5075336;28;20031;-86
2021/04/20 05:39:33;;;;;;;45.72;23.70;;;;;;;;;;5078603;28;20044;-90
2021/04/20 05:41:58;;;;;;;50.10;22.63;;;;;;;;;;5082534;28;20055;-91
2021/04/20 05:44:23;;;;;;;44.90;22.00;;;;;;;;;;5102253;28;20017;-89
2021/04/20 05:46:49;;;;;;;47.58;23.33;;;;;;;;;;5071456;28;20459;-82
2021/04/20 05:49:15;;;;;;;40.78;20.30;;;;;;;;;;5080369;28;20027;-81
2021/04/20 05:51:41;;;;;;;43.15;23.35;;;;;;;;;;5074680;28;20032;-81
2021/04/20 05:54:08;;;;;;;38.50;20.98;;;;;;;;;;5085707;28;20029;-90
2021/04/20 05:56:34;;;;;;;51.47;25.65;;;;;;;;;;5077030;28;20058;-86
2021/04/20 05:59:00;;;;;;;48.00;24.20;;;;;;;;;;5062840;28;20025;-81
2021/04/20 06:01:26;;;;;;;45.33;23.80;;;;;;;;;;5083687;28;20031;-82
2021/04/20 06:03:51;;;;;;;41.83;23.08;;;;;;;;;;5067637;28;20028;-82
2021/04/20 06:06:18;;;;;;;36.72;20.08;;;;;;;;;;5066658;28;20020;-82
2021/04/20 06:08:44;;;;;;;40.53;21.30;;;;;;;;;;5063130;28;20082;-82
2021/04/20 06:11:10;;;;;;;39.58;20.45;;;;;;;;;;5080402;28;20025;-83
2021/04/20 06:13:35;;;;;;;40.35;20.45;;;;;;;;;;5068560;28;20052;-86
2021/04/20 06:16:03;;;;;;;42.35;22.67;;;;;;;;;;5086581;28;20032;-84
2021/04/20 06:18:30;;;;;;;39.65;21.98;;;;;;;;;;5092943;28;20114;-87
2021/04/20 06:20:56;;;;;;;39.47;20.85;;;;;;;;;;5059009;28;20024;-84
2021/04/20 06:23:22;;;;;;;37.67;18.23;;;;;;;;;;5077294;28;20364;-82
2021/04/20 06:25:48;;;;;;;37.50;20.70;;;;;;;;;;5076683;28;20478;-85
2021/04/20 06:28:16;;;;;;;41.65;20.92;;;;;;;;;;5084508;28;20021;-82
2021/04/20 06:30:42;;;;;;;36.78;18.95;;;;;;;;;;5066161;28;20036;-84
2021/04/20 06:33:08;;;;;;;33.55;18.73;;;;;;;;;;5101615;28;20012;-83
2021/04/20 06:35:33;;;;;;;34.17;18.25;;;;;;;;;;5103881;28;20040;-88
2021/04/20 06:37:59;;;;;;;38.17;21.00;;;;;;;;;;5087401;28;20117;-90
2021/04/20 06:40:34;;;;;;;37.67;20.90;;;;;;;;;;5087638;28;20025;-93
2021/04/20 06:43:01;;;;;;;32.53;16.95;;;;;;;;;;5098813;28;20012;-90
2021/04/20 06:45:35;;;;;;;36.55;19.33;;;;;;;;;;5099408;28;20233;-88
2021/04/20 06:48:06;;;;;;;35.58;19.33;;;;;;;;;;5101917;28;20039;-88
2021/04/20 06:50:32;;;;;;;34.03;18.27;;;;;;;;;;5094221;28;20426;-84
2021/04/20 06:53:06;;;;;;;36.22;18.70;;;;;;;;;;5081034;28;20042;-84
2021/04/20 06:55:37;;;;;;;34.92;18.88;;;;;;;;;;5087273;28;20036;-86
2021/04/20 06:58:06;;;;;;;35.47;19.08;;;;;;;;;;5074532;28;20375;-87
2021/04/20 07:00:37;;;;;;;31.00;17.08;;;;;;;;;;5092106;28;20035;-86
2021/04/20 07:03:11;;;;;;;36.35;19.38;;;;;;;;;;5083326;28;20025;-86
2021/04/20 07:05:43;;;;;;;35.47;18.45;;;;;;;;;;5085627;28;20199;-86
2021/04/20 07:08:08;;;;;;;33.80;19.50;;;;;;;;;;5060456;28;20032;-86
2021/04/20 07:10:35;;;;;;;33.85;17.85;;;;;;;;;;5081711;28;20458;-85
2021/04/20 07:13:06;;;;;;;34.80;19.23;;;;;;;;;;5077252;28;20039;-82
2021/04/20 07:15:32;;;;;;;34.95;19.08;;;;;;;;;;5076704;28;20117;-84
2021/04/20 07:18:03;;;;;;;33.55;17.05;;;;;;;;;;5078084;28;20016;-85
2021/04/20 07:20:37;;;;;;;32.42;18.20;;;;;;;;;;5060430;28;20030;-84
2021/04/20 07:23:21;;;;;;;29.02;16.60;;;;;;;;;;5088899;28;20107;-85
2021/04/20 07:25:49;;;;;;;34.15;18.45;;;;;;;;;;5080211;28;20043;-83
2021/04/20 07:28:31;;;;;;;31.63;17.13;;;;;;;;;;5091452;28;20016;-87
2021/04/20 07:31:14;;;;;;;35.30;18.83;;;;;;;;;;5082299;28;20036;-84
2021/04/20 07:33:42;;;;;;;30.23;17.70;;;;;;;;;;5077536;28;20040;-85
2021/04/20 07:36:18;;;;;;;32.45;17.40;;;;;;;;;;5077327;28;20103;-85
2021/04/20 07:38:48;;;;;;;29.95;18.02;;;;;;;;;;5105990;28;20067;-85
2021/04/20 07:41:29;;;;;;;29.48;17.10;;;;;;;;;;5100031;28;20012;-84
2021/04/20 07:44:08;;;;;;;29.23;16.70;;;;;;;;;;5080564;28;20078;-84
2021/04/20 07:46:53;;;;;;;30.77;16.70;;;;;;;;;;5081102;28;20115;-84
2021/04/20 07:49:23;;;;;;;27.67;15.70;;;;;;;;;;5071496;28;20029;-84
2021/04/20 07:52:03;;;;;;;30.75;16.25;;;;;;;;;;5079631;28;20475;-85
2021/04/20 07:54:28;;;;;;;;;;;;;;;;;;5072272;28;20075;-86
2021/04/20 07:57:12;;;;;;;28.92;16.70;;;;;;;;;;5078998;28;19908;-86
2021/04/20 07:59:55;;;;;;;27.85;15.85;;;;;;;;;;5077350;28;20028;-85
2021/04/20 08:02:39;;;;;;;26.45;15.15;;;;;;;;;;5082710;28;20020;-82
2021/04/20 08:05:15;;;;;;;29.70;15.90;;;;;;;;;;5069218;28;20028;-84
2021/04/20 08:07:49;;;;;;;26.30;14.40;;;;;;;;;;5086180;28;20043;-84
2021/04/20 08:10:15;;;;;;;27.05;15.35;;;;;;;;;;5083871;28;20356;-84
2021/04/20 08:12:56;;;;;;;26.17;15.20;;;;;;;;;;5071068;28;20039;-83
2021/04/20 08:15:27;;;;;;;28.90;15.43;;;;;;;;;;5066361;28;20043;-85
2021/04/20 08:18:01;;;;;;;27.75;15.38;;;;;;;;;;5054982;28;20048;-85
2021/04/20 08:20:28;;;;;;;28.25;15.32;;;;;;;;;;5078391;28;20091;-90
2021/04/20 08:22:54;;;;;;;30.92;17.60;;;;;;;;;;5095016;28;20012;-86
2021/04/20 08:25:23;;;;;;;26.38;14.55;;;;;;;;;;5102097;28;20391;-90
2021/04/20 08:27:54;;;;;;;29.25;15.52;;;;;;;;;;5087006;28;20020;-91
2021/04/20 08:30:40;;;;;;;30.15;16.42;;;;;;;;;;5068148;28;20098;-88
2021/04/20 08:33:11;;;;;;;26.65;15.13;;;;;;;;;;5077594;28;20483;-88
2021/04/20 08:35:37;;;;;;;23.90;13.85;;;;;;;;;;5115124;28;20043;-89
2021/04/20 08:38:13;;;;;;;26.67;15.60;;;;;;;;;;5069065;28;20487;-90
2021/04/20 08:40:43;;;;;;;25.95;14.23;;;;;;;;;;5092233;28;20550;-88
2021/04/20 08:43:08;;;;;;;24.27;14.32;;;;;;;;;;5067227;28;20428;-89
2021/04/20 08:45:42;;;;;;;26.90;14.38;;;;;;;;;;5105228;28;20005;-88
2021/04/20 08:48:20;;;;;;;25.52;14.27;;;;;;;;;;5092221;28;20278;-88
2021/04/20 08:50:50;;;;;;;26.65;14.82;;;;;;;;;;5082322;28;20013;-87
2021/04/20 08:53:28;;;;;;;24.50;14.05;;;;;;;;;;5079886;28;20017;-89
2021/04/20 08:56:00;;;;;;;25.10;14.70;;;;;;;;;;5068200;28;20123;-90
2021/04/20 08:58:52;;;;;;;25.77;14.80;;;;;;;;;;5082581;28;20058;-88
2021/04/20 09:01:21;;;;;;;26.65;14.32;;;;;;;;;;5090903;28;20085;-89
2021/04/20 09:03:46;;;;;;;21.52;13.10;;;;;;;;;;5067884;28;20397;-90
2021/04/20 09:06:22;;;;;;;25.65;15.02;;;;;;;;;;5094553;28;20020;-90
2021/04/20 09:08:49;;;;;;;23.55;13.25;;;;;;;;;;5093758;28;20027;-91
2021/04/20 09:11:23;;;;;;;24.40;14.25;;;;;;;;;;5084023;28;20028;-91
2021/04/20 09:13:52;;;;;;;22.67;13.45;;;;;;;;;;5078889;28;20110;-91
2021/04/20 09:16:21;;;;;;;24.42;13.25;;;;;;;;;;5093177;28;20387;-88
2021/04/20 09:18:47;;;;;;;25.35;13.55;;;;;;;;;;5074407;28;20084;-89
2021/04/20 09:21:17;;;;;;;23.13;14.35;;;;;;;;;;5072210;28;20336;-89
2021/04/20 09:23:57;;;;;;;25.80;14.82;;;;;;;;;;5070648;28;20050;-89
2021/04/20 09:26:37;;;;;;;22.63;12.73;;;;;;;;;;5082358;28;20017;-90
2021/04/20 09:29:12;;;;;;;23.55;13.45;;;;;;;;;;5081133;28;20058;-91
2021/04/20 09:31:41;;;;;;;22.30;12.68;;;;;;;;;;5078912;28;20024;-90
2021/04/20 09:34:08;;;;;;;29.00;16.08;;;;;;;;;;5070926;28;20052;-91
2021/04/20 09:36:34;;;;;;;28.85;16.88;;;;;;;;;;5061333;28;20028;-90
2021/04/20 09:39:01;;;;;;;25.50;15.25;;;;;;;;;;5063387;28;20020;-90
2021/04/20 09:41:28;;;;;;;25.00;14.10;;;;;;;;;;5069146;28;20107;-88
2021/04/20 09:44:11;;;;;;;23.30;13.38;;;;;;;;;;5071027;28;20031;-90
2021/04/20 09:47:06;;;;;;;23.20;13.18;;;;;;;;;;5068568;28;20040;-91
2021/04/20 09:49:46;;;;;;;26.10;14.25;;;;;;;;;;5058814;28;20035;-89
2021/04/20 09:52:16;;;;;;;23.42;13.70;;;;;;;;;;5106808;28;20023;-91
2021/04/20 09:54:47;;;;;;;21.98;12.27;;;;;;;;;;5080676;28;20047;-93
2021/04/20 09:57:14;;;;;;;20.83;12.90;;;;;;;;;;5082102;28;20021;-89
2021/04/20 09:59:45;;;;;;;22.10;14.40;;;;;;;;;;5086293;28;20024;-83
2021/04/20 10:02:25;;;;;;;22.40;12.02;;;;;;;;;;5078607;28;20028;-82
2021/04/20 10:04:53;;;;;;;25.65;13.48;;;;;;;;;;5064289;28;20556;-83
2021/04/20 10:07:24;;;;;;;23.77;13.43;;;;;;;;;;5059465;28;20028;-81
2021/04/20 10:09:54;;;;;;;22.38;12.27;;;;;;;;;;5072319;28;20089;-84
2021/04/20 10:12:19;;;;;;;;;;;;;;;;;;5062145;28;20411;-83
2021/04/20 10:14:49;;;;;;;22.85;12.85;;;;;;;;;;5070321;28;20276;-82
2021/04/20 10:17:16;;;;;;;24.52;13.13;;;;;;;;;;5071035;28;20154;-82
2021/04/20 10:19:49;;;;;;;23.23;14.50;;;;;;;;;;5072415;28;20039;-83
2021/04/20 10:22:23;;;;;;;21.63;12.18;;;;;;;;;;5058887;28;20023;-81
2021/04/20 10:25:12;;;;;;;21.70;12.63;;;;;;;;;;5074030;28;20095;-82
2021/04/20 10:27:37;;;;;;;22.42;13.77;;;;;;;;;;5079144;28;20024;-79
2021/04/20 10:30:02;;;;;;;21.85;12.90;;;;;;;;;;5060497;28;20104;-81
2021/04/20 10:32:36;;;;;;;20.30;12.02;;;;;;;;;;5055545;28;20115;-81
2021/04/20 10:35:03;;;;;;;20.95;12.45;;;;;;;;;;5056134;28;20460;-82
2021/04/20 10:37:34;;;;;;;21.42;12.32;;;;;;;;;;5064145;28;20756;-85
2021/04/20 10:40:02;;;;;;;22.55;12.75;;;;;;;;;;5061956;28;20052;-86
2021/04/20 10:42:28;;;;;;;17.88;11.15;;;;;;;;;;5058423;28;20074;-85
2021/04/20 10:44:54;;;;;;;17.70;10.55;;;;;;;;;;5073932;28;20028;-84
2021/04/20 10:47:20;;;;;;;20.08;11.77;;;;;;;;;;5075591;28;20032;-90
2021/04/20 10:49:49;;;;;;;18.42;11.23;;;;;;;;;;5094895;28;20012;-90
2021/04/20 10:52:15;;;;;;;22.48;13.73;;;;;;;;;;5084822;28;20005;-85
2021/04/20 10:54:42;;;;;;;23.98;13.73;;;;;;;;;;5074162;28;20064;-83
2021/04/20 10:57:11;;;;;;;19.98;12.02;;;;;;;;;;5058737;28;20028;-85
2021/04/20 10:59:37;;;;;;;19.17;11.30;;;;;;;;;;5091045;28;20033;-86
2021/04/20 11:02:05;;;;;;;20.38;12.23;;;;;;;;;;5077886;28;20033;-88
2021/04/20 11:04:36;;;;;;;21.33;12.45;;;;;;;;;;5076513;28;20040;-84
2021/04/20 11:07:18;;;;;;;20.35;11.38;;;;;;;;;;5069287;28;20480;-85
2021/04/20 11:09:44;;;;;;;20.48;11.18;;;;;;;;;;5060896;28;20051;-88
2021/04/20 11:12:12;;;;;;;19.55;11.82;;;;;;;;;;5084912;28;20012;-88
2021/04/20 11:14:39;;;;;;;17.30;10.73;;;;;;;;;;5074071;28;20195;-87
2021/04/20 11:17:07;;;;;;;17.92;11.23;;;;;;;;;;5061091;28;20017;-87
2021/04/20 11:19:36;;;;;;;18.90;10.60;;;;;;;;;;5068905;28;20382;-86
2021/04/20 11:22:02;;;;;;;19.20;11.52;;;;;;;;;;5066254;28;20017;-88
2021/04/20 11:24:29;;;;;;;17.50;10.23;;;;;;;;;;5066013;28;20021;-93
2021/04/20 11:26:58;;;;;;;18.63;11.00;;;;;;;;;;5058418;28;20095;-85
2021/04/20 11:29:36;;;;;;;18.45;10.20;;;;;;;;;;5056991;28;20029;-82
2021/04/20 11:32:02;;;;;;;17.63;10.98;;;;;;;;;;5066271;28;20099;-83
2021/04/20 11:34:31;;;;;;;14.40;9.27;;;;;;;;;;5067980;28;20044;-83
2021/04/20 11:37:02;;;;;;;17.40;9.05;;;;;;;;;;5072374;28;20103;-82
2021/04/20 11:39:33;;;;;;;15.40;9.25;;;;;;;;;;5082271;28;20020;-82
2021/04/20 11:42:13;;;;;;;16.98;10.18;;;;;;;;;;5063158;28;20024;-85
2021/04/20 11:44:39;;;;;;;15.90;9.70;;;;;;;;;;5074129;28;20024;-84
2021/04/20 11:47:07;;;;;;;15.90;9.57;;;;;;;;;;5078774;28;20532;-84
2021/04/20 11:49:33;;;;;;;15.35;9.40;;;;;;;;;;5084190;28;20020;-84
2021/04/20 11:52:02;;;;;;;17.73;10.75;;;;;;;;;;5085631;28;20104;-83
2021/04/20 11:54:29;;;;;;;15.95;9.10;;;;;;;;;;5076044;28;20024;-83
2021/04/20 11:56:58;;;;;;;14.10;9.00;;;;;;;;;;5090993;28;20048;-86
2021/04/20 11:59:24;;;;;;;16.63;9.38;;;;;;;;;;5087238;28;20028;-82
2021/04/20 12:01:49;;;;;;;14.60;9.55;;;;;;;;;;5076154;28;20131;-81
2021/04/20 12:04:20;;;;;;;17.40;9.52;;;;;;;;;;5074867;28;20041;-84
2021/04/20 12:06:50;;;;;;;14.65;8.65;;;;;;;;;;5071440;28;20020;-80
2021/04/20 12:09:22;;;;;;;13.23;8.70;;;;;;;;;;5077854;28;20024;-83
2021/04/20 12:11:48;;;;;;;13.80;8.73;;;;;;;;;;5060533;28;20028;-85
2021/04/20 12:14:21;;;;;;;17.02;10.23;;;;;;;;;;5076335;28;20173;-82
2021/04/20 12:16:47;;;;;;;13.88;8.05;;;;;;;;;;5063952;28;20029;-87
2021/04/20 12:19:14;;;;;;;15.60;8.73;;;;;;;;;;5061749;28;20020;-87
2021/04/20 12:21:40;;;;;;;13.43;8.43;;;;;;;;;;5054290;28;20028;-81
2021/04/20 12:24:09;;;;;;;13.80;9.00;;;;;;;;;;5070490;28;20487;-81
2021/04/20 12:26:35;;;;;;;14.75;8.45;;;;;;;;;;5079981;28;20017;-80
2021/04/20 12:29:13;;;;;;;13.43;8.27;;;;;;;;;;5081127;28;20032;-82
2021/04/20 12:31:39;;;;;;;14.13;8.98;;;;;;;;;;5074917;28;20020;-82
2021/04/20 12:34:04;;;;;;;15.05;8.20;;;;;;;;;;5071342;28;20045;-83
2021/04/20 12:36:38;;;;;;;12.50;8.05;;;;;;;;;;5061457;28;20036;-82
2021/04/20 12:39:05;;;;;;;13.75;7.75;;;;;;;;;;5084493;28;20431;-80
2021/04/20 12:41:31;;;;;;;12.18;7.82;;;;;;;;;;5087973;28;20495;-81
2021/04/20 12:43:58;;;;;;;13.43;8.07;;;;;;;;;;5073130;28;20017;-81
2021/04/20 12:46:24;;;;;;;12.88;7.47;;;;;;;;;;5081365;28;20031;-82
2021/04/20 12:48:53;;;;;;;10.60;6.97;;;;;;;;;;5078743;28;20021;-83
2021/04/20 12:51:19;;;;;;;11.60;7.10;;;;;;;;;;5060696;28;20116;-83
2021/04/20 12:53:49;;;;;;;14.40;8.52;;;;;;;;;;5057656;28;20031;-83
2021/04/20 12:56:26;;;;;;;15.07;8.32;;;;;;;;;;5055125;28;20036;-83
2021/04/20 12:58:52;;;;;;;12.10;7.50;;;;;;;;;;5080361;28;20029;-84
2021/04/20 13:01:19;;;;;;;13.18;7.93;;;;;;;;;;5061646;28;20490;-81
2021/04/20 13:03:45;;;;;;;11.88;7.18;;;;;;;;;;5079515;28;20098;-81
2021/04/20 13:06:10;;;;;;;12.60;7.45;;;;;;;;;;5082636;28;20444;-82
2021/04/20 13:08:46;;;;;;;15.38;8.25;;;;;;;;;;5084940;28;20035;-82
2021/04/20 13:11:12;;;;;;;13.23;8.00;;;;;;;;;;5078532;28;20035;-81
2021/04/20 13:13:38;;;;;;;12.00;7.63;;;;;;;;;;5086599;28;20399;-83
2021/04/20 13:16:03;;;;;;;12.43;7.20;;;;;;;;;;5082993;28;20052;-81
2021/04/20 13:18:31;;;;;;;15.30;8.25;;;;;;;;;;5071868;28;20032;-82
2021/04/20 13:20:59;;;;;;;13.45;7.80;;;;;;;;;;5060338;28;20032;-82
2021/04/20 13:23:27;;;;;;;12.45;7.28;;;;;;;;;;5074995;28;20039;-82
2021/04/20 13:25:57;;;;;;;12.40;7.78;;;;;;;;;;5073174;28;20032;-83
2021/04/20 13:28:26;;;;;;;12.07;7.32;;;;;;;;;;5053498;28;20039;-80
2021/04/20 13:30:52;;;;;;;12.90;7.68;;;;;;;;;;5079037;28;20545;-82
2021/04/20 13:33:19;;;;;;;12.48;7.70;;;;;;;;;;5075658;28;20020;-83
2021/04/20 13:35:45;;;;;;;12.80;7.55;;;;;;;;;;5084205;28;20039;-83
2021/04/20 13:38:11;;;;;;;11.25;7.50;;;;;;;;;;5072386;28;20017;-83
2021/04/20 13:40:36;;;;;;;11.65;7.15;;;;;;;;;;5079640;28;20023;-82
2021/04/20 13:43:02;;;;;;;12.55;8.20;;;;;;;;;;5078260;28;20016;-81
2021/04/20 13:45:32;;;;;;;12.10;7.28;;;;;;;;;;5081312;28;20032;-82
2021/04/20 13:47:57;;;;;;;;;;;;;;;;;;5084016;28;20093;-81
2021/04/20 13:50:33;;;;;;;12.05;7.32;;;;;;;;;;5077880;28;19908;-81
2021/04/20 13:53:05;;;;;;;16.60;6.90;;;;;;;;;;5081492;28;20032;-82
2021/04/20 13:55:31;;;;;;;12.63;7.47;;;;;;;;;;5074432;28;20557;-81
2021/04/20 13:57:58;;;;;;;10.63;6.68;;;;;;;;;;5083581;28;20351;-80
2021/04/20 14:00:31;;;;;;;11.55;6.93;;;;;;;;;;5083624;28;20031;-83
2021/04/20 14:02:58;;;;;;;11.98;7.18;;;;;;;;;;5082262;28;20020;-81
2021/04/20 14:05:42;;;;;;;12.10;7.28;;;;;;;;;;5072428;28;20085;-81
2021/04/20 14:08:10;;;;;;;15.18;7.82;;;;;;;;;;5081098;28;20146;-81
2021/04/20 14:10:36;;;;;;;10.95;6.85;;;;;;;;;;5080266;28;20103;-82
2021/04/20 14:13:10;;;;;;;10.23;6.78;;;;;;;;;;5074479;28;20539;-82
2021/04/20 14:15:36;;;;;;;10.90;6.97;;;;;;;;;;5088046;28;20058;-83
2021/04/20 14:18:04;;;;;;;11.85;6.85;;;;;;;;;;5082499;28;20024;-81
2021/04/20 14:20:49;;;;;;;10.45;6.47;;;;;;;;;;5081259;28;20499;-81
2021/04/20 14:23:18;;;;;;;13.63;6.88;;;;;;;;;;5084159;28;20021;-81
2021/04/20 14:25:46;;;;;;;12.10;6.97;;;;;;;;;;5052928;28;20386;-81
2021/04/20 14:28:15;;;;;;;11.30;6.63;;;;;;;;;;5073000;28;20273;-83